createdAt,value
2019-02-06T00:01:32.028Z,30.17
2019-02-06T00:07:36.425Z,25.40
2019-02-06T00:13:40.924Z,21.27
2019-02-06T00:19:47.447Z,18.77
2019-02-06T00:25:51.853Z,28.38
2019-02-06T00:31:57.665Z,32.28
2019-02-06T00:38:04.978Z,32.43
2019-02-06T00:44:07.919Z,31.25
2019-02-06T00:50:13.372Z,34.23
2019-02-06T00:56:17.661Z,33.77
2019-02-06T01:02:22.223Z,33.77
2019-02-06T01:08:26.427Z,31.82
2019-02-06T01:14:30.805Z,37.60
2019-02-06T01:20:35.271Z,42.43
2019-02-06T01:26:39.549Z,37.78
2019-02-06T01:32:43.997Z,38.75
2019-02-06T01:38:48.634Z,36.50
2019-02-06T01:44:52.850Z,34.67
2019-02-06T01:50:57.197Z,38.53
2019-02-06T01:57:01.494Z,43.23
2019-02-06T02:03:06.126Z,45.03
2019-02-06T02:09:19.769Z,42.50
2019-02-06T02:15:24.050Z,36.63
2019-02-06T02:21:28.862Z,36.58
2019-02-06T02:27:33.158Z,33.70
2019-02-06T02:33:37.447Z,35.45
2019-02-06T02:39:41.995Z,33.03
2019-02-06T02:45:46.267Z,29.35
2019-02-06T02:51:50.634Z,35.03
2019-02-06T02:57:54.943Z,36.23
2019-02-06T03:04:10.045Z,30.43
2019-02-06T03:10:14.421Z,24.57
2019-02-06T03:16:18.692Z,23.38
2019-02-06T03:22:23.328Z,22.58
2019-02-06T03:28:27.586Z,23.12
2019-02-06T03:34:31.895Z,20.75
2019-02-06T03:40:36.102Z,17.27
2019-02-06T03:46:40.411Z,17.00
2019-02-06T03:52:44.629Z,15.13
2019-02-06T03:58:48.948Z,14.58
2019-02-06T04:04:53.177Z,15.50
2019-02-06T04:10:57.443Z,13.48
2019-02-06T04:17:01.714Z,21.25
2019-02-06T04:23:06.027Z,21.37
2019-02-06T04:29:10.765Z,27.13
2019-02-06T04:35:15.582Z,25.62
2019-02-06T04:41:19.931Z,29.85
2019-02-06T04:47:24.226Z,29.87
2019-02-06T04:53:28.574Z,23.90
2019-02-06T04:59:32.866Z,20.05
2019-02-06T05:05:37.223Z,26.12
2019-02-06T05:11:43.195Z,16.57
2019-02-06T05:17:47.456Z,18.82
2019-02-06T05:23:51.870Z,23.73
2019-02-06T05:29:56.174Z,15.50
2019-02-06T05:36:00.744Z,19.05
2019-02-06T05:42:05.104Z,26.77
2019-02-06T05:48:09.323Z,27.58
2019-02-06T05:54:13.660Z,30.85
2019-02-06T06:00:22.600Z,25.72
2019-02-06T06:06:27.038Z,22.50
2019-02-06T06:12:31.323Z,19.55
2019-02-06T06:18:36.054Z,22.77
2019-02-06T06:24:43.323Z,26.02
2019-02-06T06:30:47.656Z,28.38
2019-02-06T06:36:51.939Z,31.57
2019-02-06T06:42:56.634Z,24.70
2019-02-06T06:49:00.877Z,26.97
2019-02-06T06:55:05.490Z,19.25
2019-02-06T07:01:10.954Z,26.82
2019-02-06T07:07:15.702Z,23.52
2019-02-06T07:13:20.062Z,27.22
2019-02-06T07:19:24.289Z,22.27
2019-02-06T07:25:28.911Z,22.10
2019-02-06T07:31:33.188Z,25.37
2019-02-06T07:37:37.605Z,22.95
2019-02-06T07:43:41.967Z,19.98
2019-02-06T07:49:46.292Z,25.68
2019-02-06T07:55:50.894Z,24.12
2019-02-06T08:01:55.192Z,19.12
2019-02-06T08:07:59.528Z,27.87
2019-02-06T08:14:03.902Z,26.17
2019-02-06T08:20:10.054Z,32.05
2019-02-06T08:26:14.374Z,18.75
2019-02-06T08:32:18.663Z,27.87
2019-02-06T08:38:22.920Z,29.05
2019-02-06T08:44:27.267Z,29.82
2019-02-06T08:50:31.466Z,24.70
2019-02-06T08:56:35.857Z,21.70
2019-02-06T09:02:40.220Z,27.17
2019-02-06T09:08:44.501Z,26.65
2019-02-06T09:14:49.074Z,22.95
2019-02-06T09:20:53.384Z,19.30
2019-02-06T09:26:57.708Z,23.75
2019-02-06T09:33:02.422Z,20.68
2019-02-06T09:39:11.570Z,19.48
2019-02-06T09:45:16.367Z,18.05
2019-02-06T09:51:20.594Z,24.50
2019-02-06T09:57:25.288Z,23.07
2019-02-06T10:03:29.575Z,25.30
2019-02-06T10:09:35.930Z,22.00
2019-02-06T10:15:40.597Z,20.82
2019-02-06T10:21:44.858Z,20.90
2019-02-06T10:27:49.173Z,19.07
2019-02-06T10:33:53.653Z,23.20
2019-02-06T10:39:58.688Z,31.82
2019-02-06T10:46:03.144Z,19.70
2019-02-06T10:52:07.460Z,23.62
2019-02-06T10:58:11.845Z,18.25
2019-02-06T11:04:16.185Z,21.27
2019-02-06T11:10:21.526Z,23.50
2019-02-06T11:16:26.022Z,25.32
2019-02-06T11:22:30.401Z,24.85
2019-02-06T11:28:34.714Z,25.30
2019-02-06T11:34:39.031Z,23.85
2019-02-06T11:40:43.414Z,25.32
2019-02-06T11:46:48.101Z,24.23
2019-02-06T11:52:52.565Z,23.90
2019-02-06T11:58:56.855Z,15.05
2019-02-06T12:05:01.539Z,18.00
2019-02-06T12:11:07.356Z,19.37
2019-02-06T12:17:11.581Z,17.45
2019-02-06T12:23:15.778Z,25.97
2019-02-06T12:29:20.541Z,23.77
2019-02-06T12:35:24.850Z,22.65
2019-02-06T12:41:29.207Z,21.12
2019-02-06T12:47:36.623Z,21.87
2019-02-06T12:53:40.948Z,23.50
2019-02-06T12:59:45.231Z,19.87
2019-02-06T13:05:49.606Z,23.70
2019-02-06T13:11:53.943Z,26.02
2019-02-06T13:17:58.676Z,20.92
2019-02-06T13:24:02.906Z,21.90
2019-02-06T13:30:10.654Z,23.73
2019-02-06T13:36:14.938Z,20.72
2019-02-06T13:42:19.309Z,23.40
2019-02-06T13:48:23.612Z,31.62
2019-02-06T13:54:28.001Z,24.55
2019-02-06T14:00:35.445Z,20.68
2019-02-06T14:06:39.807Z,21.33
2019-02-06T14:12:44.230Z,22.30
2019-02-06T14:18:48.543Z,18.17
2019-02-06T14:24:57.219Z,16.30
2019-02-06T14:31:33.920Z,17.65
2019-02-06T14:38:19.980Z,22.22
2019-02-06T14:45:18.805Z,20.95
2019-02-06T14:51:48.830Z,19.10
2019-02-06T14:58:26.646Z,13.58
2019-02-06T15:05:03.887Z,20.10
2019-02-06T15:12:13.349Z,18.10
2019-02-06T15:19:07.823Z,21.17
2019-02-06T15:25:57.432Z,20.10
2019-02-06T15:32:39.273Z,24.43
2019-02-06T15:39:45.711Z,19.50
2019-02-06T15:46:09.749Z,18.70
2019-02-06T15:52:54.716Z,20.02
2019-02-06T15:59:45.190Z,18.85
2019-02-06T16:06:37.783Z,18.57
2019-02-06T16:13:23.089Z,19.87
2019-02-06T16:20:07.474Z,18.57
2019-02-06T16:26:57.586Z,21.35
2019-02-06T16:33:45.018Z,22.48
2019-02-06T16:40:19.776Z,24.85
2019-02-06T16:46:52.972Z,25.70
2019-02-06T16:53:20.583Z,26.97
2019-02-06T16:59:51.792Z,27.25
2019-02-06T17:06:19.177Z,24.55
2019-02-06T17:13:01.703Z,22.10
2019-02-06T17:19:52.081Z,26.80
2019-02-06T17:26:32.586Z,24.37
2019-02-06T17:33:20.743Z,20.00
2019-02-06T17:39:52.886Z,21.65
2019-02-06T17:46:40.134Z,19.90
2019-02-06T17:53:09.391Z,22.40
2019-02-06T17:59:13.760Z,18.65
2019-02-06T18:05:18.200Z,21.23
2019-02-06T18:11:22.489Z,22.90
2019-02-06T18:17:27.022Z,23.25
2019-02-06T18:23:31.343Z,23.42
2019-02-06T18:29:35.612Z,22.52
2019-02-06T18:35:43.398Z,25.80
2019-02-06T18:41:48.071Z,29.05
2019-02-06T18:47:56.897Z,32.33
2019-02-06T18:54:01.221Z,33.65
2019-02-06T19:00:10.060Z,31.85
2019-02-06T19:06:14.633Z,35.78
2019-02-06T19:12:19.010Z,42.08
2019-02-06T19:18:23.394Z,35.52
2019-02-06T19:24:28.699Z,36.30
2019-02-06T19:30:34.867Z,37.90
2019-02-06T19:36:39.190Z,35.75
2019-02-06T19:42:43.486Z,52.13
2019-02-06T19:48:47.836Z,39.45
2019-02-06T19:54:52.161Z,45.90
2019-02-06T20:00:56.724Z,49.20
2019-02-06T20:07:01.077Z,39.58
2019-02-06T20:13:12.270Z,48.25
2019-02-06T20:19:11.834Z,42.78
2019-02-06T20:25:16.922Z,45.85
2019-02-06T20:31:21.360Z,48.80
2019-02-06T20:37:25.884Z,37.75
2019-02-06T20:43:30.174Z,33.65
2019-02-06T20:49:34.562Z,32.83
2019-02-06T20:55:38.929Z,36.75
2019-02-06T21:01:43.164Z,31.35
2019-02-06T21:07:47.662Z,36.23
2019-02-06T21:13:52.286Z,27.87
2019-02-06T21:19:56.677Z,26.97
2019-02-06T21:26:01.114Z,26.65
2019-02-06T21:32:05.540Z,27.80
2019-02-06T21:38:10.060Z,19.65
2019-02-06T21:44:14.366Z,14.55
2019-02-06T21:50:22.895Z,15.98
2019-02-06T21:56:27.381Z,15.10
2019-02-06T22:02:31.800Z,9.60
2019-02-06T22:08:36.063Z,10.85
2019-02-06T22:14:40.441Z,10.98
2019-02-06T22:20:44.969Z,12.03
2019-02-06T22:26:49.268Z,9.65
2019-02-06T22:32:53.767Z,7.85
2019-02-06T22:38:58.409Z,9.98
2019-02-06T22:45:02.945Z,7.45
2019-02-06T22:51:07.322Z,10.28
2019-02-06T22:57:11.751Z,4.78
2019-02-06T23:03:19.359Z,7.03
2019-02-06T23:09:23.709Z,5.40
2019-02-06T23:15:28.041Z,8.48
2019-02-06T23:21:32.643Z,7.25
2019-02-06T23:27:36.935Z,4.85
2019-02-06T23:33:43.031Z,6.90
2019-02-06T23:39:47.885Z,5.25
2019-02-06T23:45:52.201Z,6.78
2019-02-06T23:51:56.418Z,6.08
2019-02-06T23:58:00.714Z,4.87
